Latest Weather Observations for Noona

IDN60801

Issued at 5:12 am EST Wednesday 19 September 2018 (issued every 10 minutes, with the page automatically refreshed every 10 minutes)

About weather observations | Map of weather stations | Latest weather observations for NSW | Other Formats
Station Details ID: 048250 Name: NOONA AWS Lat: -31.73 Lon: 144.93 Height: 179.0 m
Data from the previous 72 hours. | See also: Recent months at Noona
Date/Time
EST
Temp
°C
App
Temp
°C
Dew
Point
°C
Rel
Hum
%
Delta-T
°C
Wind Press
QNH
hPa
Press
MSL
hPa
Rain since
9am
mm
Dir  Spd
km/h
Gust
km/h
Spd
kts
Gust
kts
19/05:00am 13.3 - 3.9 53 4.3 - - - - - - - 0.0
19/04:30am 14.0 - 4.0 51 4.6 - - - - - - - 0.0
19/04:00am 14.8 - 4.2 49 4.9 - - - - - - - 0.0
19/03:30am 15.0 - 3.8 47 5.2 - - - - - - - 0.0
19/03:00am 15.2 - 2.1 41 5.9 - - - - - - - 0.0
19/02:30am 15.5 - -0.3 34 6.7 - - - - - - - 0.0
19/02:00am 15.3 - -5.1 24 7.8 - - - - - - - 0.0
19/01:30am 14.9 - -12.3 14 8.9 - - - - - - - 0.0
19/01:00am 17.7 - -13.1 11 10.2 - - - - - - - 0.0
19/12:30am 17.8 - -13.0 11 10.3 - - - - - - - 0.0
19/12:00am 18.0 - -12.9 11 10.4 - - - - - - - 0.0
 
Date/Time
EST
Temp
°C
App
Temp
°C
Dew
Point
°C
Rel
Hum
%
Delta-T
°C
Wind Press
QNH
hPa
Press
MSL
hPa
Rain since
9am
mm
Dir  Spd
km/h
Gust
km/h
Spd
kts
Gust
kts
18/11:30pm 18.5 - -12.5 11 10.5 - - - - - - - 0.0
18/11:00pm 18.2 - -12.7 11 10.4 - - - - - - - 0.0
18/10:30pm 18.8 - -13.4 10 10.8 - - - - - - - 0.0
18/10:00pm 18.7 - -13.5 10 10.8 - - - - - - - 0.0
18/09:30pm 19.9 - -12.6 10 11.2 - - - - - - - 0.0
18/09:00pm 20.4 - -13.5 9 11.6 - - - - - - - 0.0
18/08:30pm 20.6 - -13.3 9 11.7 - - - - - - - 0.0
18/08:00pm 20.7 - -13.3 9 11.7 - - - - - - - 0.0
18/07:30pm 21.3 - -12.8 9 11.9 - - - - - - - 0.0
18/07:00pm 21.7 - -12.5 9 12.1 - - - - - - - 0.0
18/06:30pm 22.4 - -13.4 8 12.6 - - - - - - - 0.0
18/06:00pm 23.8 - -12.4 8 13.2 - - - - - - - 0.0
18/05:30pm 24.7 - -11.7 8 13.5 - - - - - - - 0.0
18/05:00pm 25.2 - -13.0 7 13.9 - - - - - - - 0.0
18/04:30pm 25.2 - -13.0 7 13.9 - - - - - - - 0.0
18/04:00pm 25.4 - -12.9 7 14.0 - - - - - - - 0.0
18/03:30pm 25.4 - -11.2 8 13.8 - - - - - - - 0.0
18/03:00pm 25.5 - -11.1 8 13.9 - - - - - - - 0.0
18/02:30pm 25.0 - -11.5 8 13.7 - - - - - - - 0.0
18/02:00pm 25.1 - -11.4 8 13.7 - - - - - - - 0.0
18/01:30pm 24.5 - -11.9 8 13.5 - - - - - - - 0.0
18/01:00pm 24.5 - -11.9 8 13.5 - - - - - - - 0.0
18/12:30pm 24.4 - -11.9 8 13.4 - - - - - - - 0.0
18/12:00pm 23.4 - -11.2 9 12.8 - - - - - - - 0.0
18/11:30am 23.2 - -11.4 9 12.7 - - - - - - - 0.0
18/11:00am 22.2 - -10.8 10 12.1 - - - - - - - 0.0
18/10:30am 21.8 - -11.1 10 12.0 - - - - - - - 0.0
18/10:00am 20.8 - -9.6 12 11.3 - - - - - - - 0.0
18/09:30am 19.7 - -9.5 13 10.7 - - - - - - - 0.0
18/09:00am 18.6 - -8.5 15 10.0 - - - - - - - 0.0
18/08:30am 16.3 - -8.0 18 8.8 - - - - - - - 0.0
18/08:00am 13.7 - -7.6 22 7.6 - - - - - - - 0.0
18/07:30am 10.4 - -8.8 25 6.4 - - - - - - - 0.0
18/07:00am 8.9 - -9.1 27 5.8 - - - - - - - 0.0
18/06:30am 7.2 - -9.2 30 5.1 - - - - - - - 0.0
18/06:00am 6.3 - -9.6 31 4.9 - - - - - - - 0.0
18/05:30am 7.4 - -9.0 30 5.2 - - - - - - - 0.0
18/05:00am 6.1 - -9.3 32 4.7 - - - - - - - 0.0
18/04:30am 6.7 - -9.2 31 5.0 - - - - - - - 0.0
18/04:00am 8.5 - -8.1 30 5.5 - - - - - - - 0.0
18/03:30am 7.0 - -9.4 30 5.1 - - - - - - - 0.0
18/03:00am 7.1 - -10.1 28 5.3 - - - - - - - 0.0
18/02:30am 10.6 - -8.6 25 6.4 - - - - - - - 0.0
18/02:00am 11.3 - -8.5 24 6.7 - - - - - - - 0.0
18/01:30am 11.7 - -8.2 24 6.8 - - - - - - - 0.0
18/01:00am 12.2 - -8.3 23 7.0 - - - - - - - 0.0
18/12:30am 13.1 - -8.1 22 7.4 - - - - - - - 0.0
18/12:00am 13.5 - -8.4 21 7.6 - - - - - - - 0.0
 
Date/Time
EST
Temp
°C
App
Temp
°C
Dew
Point
°C
Rel
Hum
%
Delta-T
°C
Wind Press
QNH
hPa
Press
MSL
hPa
Rain since
9am
mm
Dir  Spd
km/h
Gust
km/h
Spd
kts
Gust
kts
17/11:30pm 13.3 - -8.5 21 7.6 - - - - - - - 0.0
17/11:00pm 13.6 - -8.3 21 7.7 - - - - - - - 0.0
17/10:30pm 13.9 - -8.0 21 7.7 - - - - - - - 0.0
17/10:00pm 13.8 - -8.7 20 7.8 - - - - - - - 0.0
17/09:30pm 14.8 - -8.6 19 8.3 - - - - - - - 0.0
17/09:00pm 15.9 - -8.4 18 8.7 - - - - - - - 0.0
17/08:30pm 15.9 - -8.4 18 8.7 - - - - - - - 0.0
17/08:00pm 16.7 - -8.4 17 9.1 - - - - - - - 0.0
17/07:30pm 17.8 - -8.3 16 9.6 - - - - - - - 0.0
17/07:00pm 17.9 - -8.2 16 9.6 - - - - - - - 0.0
17/06:30pm 18.1 - -8.1 16 9.7 - - - - - - - 0.0
17/06:00pm 19.4 - -8.7 14 10.4 - - - - - - - 0.0
17/05:30pm 19.9 - -8.4 14 10.6 - - - - - - - 0.0
17/05:00pm 20.2 - -9.1 13 10.9 - - - - - - - 0.0
17/04:30pm 20.3 - -9.0 13 10.9 - - - - - - - 0.0
17/04:00pm 20.3 - -8.0 14 10.8 - - - - - - - 0.0
17/03:30pm 19.8 - -9.4 13 10.7 - - - - - - - 0.0
17/03:00pm 19.6 - -9.5 13 10.7 - - - - - - - 0.0
17/02:30pm 19.0 - -8.2 15 10.2 - - - - - - - 0.0
17/02:00pm 19.1 - -8.1 15 10.2 - - - - - - - 0.0
17/01:30pm 18.4 - -7.8 16 9.8 - - - - - - - 0.0
17/01:00pm 18.2 - -7.2 17 9.6 - - - - - - - 0.0
17/12:30pm 17.1 - -6.0 20 8.8 - - - - - - - 0.0
17/12:00pm 16.4 - -6.6 20 8.6 - - - - - - - 0.0
17/11:30am 16.3 - -4.8 23 8.2 - - - - - - - 0.0
17/11:00am 16.1 - -5.0 23 8.2 - - - - - - - 0.0
17/10:30am 15.7 - -4.2 25 7.8 - - - - - - - 0.0
17/10:00am 14.3 - -4.4 27 7.2 - - - - - - - 0.0
17/09:30am 13.6 - -4.5 28 6.9 - - - - - - - 0.0
17/09:00am 13.1 - -4.1 30 6.6 - - - - - - - 0.0
17/08:30am 12.3 - -4.3 31 6.3 - - - - - - - 0.0
17/08:00am 9.8 - -5.7 33 5.5 - - - - - - - 0.0
17/07:30am 7.6 - -6.5 36 4.8 - - - - - - - 0.0
17/07:00am 6.2 - -6.1 41 4.1 - - - - - - - 0.0
17/06:30am 4.9 - -6.0 45 3.6 - - - - - - - 0.0
17/06:00am 4.4 - -5.9 47 3.4 - - - - - - - 0.0
17/05:30am 4.9 - -6.0 45 3.6 - - - - - - - 0.0
17/05:00am 5.0 - -6.2 44 3.7 - - - - - - - 0.0
17/04:30am 6.0 - -5.9 42 4.0 - - - - - - - 0.0
17/04:00am 5.9 - -6.3 41 4.0 - - - - - - - 0.0
17/03:30am 7.0 - -5.3 41 4.2 - - - - - - - 0.0
17/03:00am 6.0 - -5.9 42 4.0 - - - - - - - 0.0
17/02:30am 5.9 - -6.3 41 4.0 - - - - - - - 0.0
17/02:00am 7.1 - -5.9 39 4.4 - - - - - - - 0.0
17/01:30am 7.6 - -5.8 38 4.6 - - - - - - - 0.0
17/01:00am 7.8 - -5.6 38 4.6 - - - - - - - 0.0
17/12:30am 8.3 - -5.5 37 4.8 - - - - - - - 0.0
17/12:00am 7.7 - -5.7 38 4.6 - - - - - - - 0.0
 
Date/Time
EST
Temp
°C
App
Temp
°C
Dew
Point
°C
Rel
Hum
%
Delta-T
°C
Wind Press
QNH
hPa
Press
MSL
hPa
Rain since
9am
mm
Dir  Spd
km/h
Gust
km/h
Spd
kts
Gust
kts
16/11:30pm 8.1 - -6.0 36 4.8 - - - - - - - 0.0
16/11:00pm 9.0 - -6.0 34 5.2 - - - - - - - 0.0
16/10:30pm 9.4 - -5.6 34 5.3 - - - - - - - 0.0
16/10:00pm 10.0 - -5.5 33 5.5 - - - - - - - 0.0
16/09:30pm 10.3 - -5.6 32 5.7 - - - - - - - 0.0
16/09:00pm 10.5 - -5.9 31 5.8 - - - - - - - 0.0
16/08:30pm 11.1 - -5.8 30 6.1 - - - - - - - 0.0
16/08:00pm 11.5 - -5.9 29 6.3 - - - - - - - 0.0
16/07:30pm 12.0 - -5.9 28 6.5 - - - - - - - 0.0
16/07:00pm 12.5 - -6.5 26 6.8 - - - - - - - 0.0
16/06:30pm 13.5 - -6.1 25 7.2 - - - - - - - 0.0
16/06:00pm 14.1 - -6.7 23 7.6 - - - - - - - 0.0
16/05:30pm 14.7 - -7.4 21 8.0 - - - - - - - 0.0
16/05:00pm 15.0 - -7.1 21 8.1 - - - - - - - 0.0
16/04:30pm 15.2 - -7.6 20 8.3 - - - - - - - 0.0
16/04:00pm 15.2 - -6.9 21 8.1 - - - - - - - 0.0
16/03:30pm 15.6 - -8.6 18 8.6 - - - - - - - 0.0
16/03:00pm 15.1 - -7.7 20 8.2 - - - - - - - 0.0
16/02:30pm 15.2 - -7.6 20 8.3 - - - - - - - 0.0
16/02:00pm 13.9 - -8.0 21 7.7 - - - - - - - 0.0
16/01:30pm 14.0 - -7.9 21 7.8 - - - - - - - 0.0
16/01:00pm 13.7 - -7.0 23 7.5 - - - - - - - 0.0
16/12:30pm 14.3 - -5.4 25 7.4 - - - - - - - 0.0
16/12:00pm 13.1 - -5.0 28 6.8 - - - - - - - 0.0
16/11:30am 12.8 - -4.3 30 6.5 - - - - - - - 0.0
16/11:00am 11.5 - -3.0 36 5.6 - - - - - - - 0.0
16/10:30am 10.7 - -3.0 38 5.2 - - - - - - - 0.0
16/10:00am 10.4 - -1.6 43 4.7 - - - - - - - 0.0
16/09:30am 9.8 - -1.3 46 4.4 - - - - - - - 0.0
16/09:00am 9.1 - -0.5 51 3.8 - - - - - - - 0.0
16/08:30am 8.0 - -0.5 55 3.3 - - - - - - - 0.0
16/08:00am 7.1 - -0.8 57 3.0 - - - - - - - 0.0
16/07:30am 6.1 - -1.5 58 2.9 - - - - - - - 0.0
16/07:00am 4.8 - -1.8 62 2.4 - - - - - - - 0.0
16/06:30am 4.3 - -2.1 63 2.3 - - - - - - - 0.0
16/06:00am 4.7 - -2.2 61 2.5 - - - - - - - 0.0
16/05:30am 5.0 - -2.3 59 2.6 - - - - - - - 0.0

Other Formats:

Comma delimited format used in spreadsheet applications
http://www.bom.gov.au/fwo/IDN60801/IDN60801.94798.axf

JavaScript Object Notation format (JSON) in row-major order
http://www.bom.gov.au/fwo/IDN60801/IDN60801.94798.json